Time;durP1;ratioP1;P1;durP2;ratioP2;P2;SDS_P1;SDS_P2;PMS_P1;PMS_P2;Temp;Humidity;BMP_temperature;BMP_pressure;BME280_temperature;BME280_humidity;BME280_pressure;Samples;Min_cycle;Max_cycle;Signal;HPM_P1;HPM_P2
2023/12/20 00:01:01;;;;;;;;;;;10.70;99.90;;;;;;5114726;28;20385;-77
2023/12/20 00:03:27;;;;;;;;;;;10.70;99.90;;;;;;5114512;28;20413;-78
2023/12/20 00:05:52;;;;;;;;;;;10.70;99.90;;;;;;5114783;28;19962;-77
2023/12/20 00:08:18;;;;;;;;;;;10.60;99.90;;;;;;5114542;28;19961;-77
2023/12/20 00:10:44;;;;;;;;;;;10.60;99.90;;;;;;5114531;28;20359;-76
2023/12/20 00:13:10;;;;;;;;;;;10.60;99.90;;;;;;5114627;28;20343;-77
2023/12/20 00:15:36;;;;;;;;;;;10.60;99.90;;;;;;5114470;28;19915;-75
2023/12/20 00:18:02;;;;;;;;;;;10.60;99.90;;;;;;5114167;28;19915;-77
2023/12/20 00:20:28;;;;;;;;;;;10.60;99.90;;;;;;5114457;28;19930;-77
2023/12/20 00:22:56;;;;;;;;;;;10.60;99.90;;;;;;5095668;28;20185;-76
2023/12/20 00:25:21;;;;;;;;;;;10.60;99.90;;;;;;5113993;28;19916;-75
2023/12/20 00:27:47;;;;;;;;;;;10.60;99.90;;;;;;5114033;28;19994;-77
2023/12/20 00:30:13;;;;;;;;;;;10.60;99.90;;;;;;5114100;28;19908;-77
2023/12/20 00:32:39;;;;;;;;;;;10.60;99.90;;;;;;5113839;28;19912;-76
2023/12/20 00:35:05;;;;;;;;;;;10.60;99.90;;;;;;5114179;28;19920;-77
2023/12/20 00:37:31;;;;;;;;;;;10.60;99.90;;;;;;5113976;28;19915;-77
2023/12/20 00:39:57;;;;;;;;;;;10.60;99.90;;;;;;5113888;28;19962;-77
2023/12/20 00:42:23;;;;;;;;;;;10.60;99.90;;;;;;5113832;28;20031;-77
2023/12/20 00:44:50;;;;;;;;;;;10.60;99.90;;;;;;5114036;28;19943;-77
2023/12/20 00:47:16;;;;;;;;;;;10.60;99.90;;;;;;5113539;28;20074;-76
2023/12/20 00:49:42;;;;;;;;;;;10.60;99.90;;;;;;5095215;28;20033;-76
2023/12/20 00:52:07;;;;;;;;;;;10.60;99.90;;;;;;5095005;28;19908;-73
2023/12/20 00:54:34;;;;;;;;;;;10.50;99.90;;;;;;5113457;28;19908;-77
2023/12/20 00:56:59;;;;;;;;;;;10.50;99.90;;;;;;5113512;28;19908;-77
2023/12/20 00:59:25;;;;;;;;;;;10.50;99.90;;;;;;5113704;28;20294;-76
2023/12/20 01:01:51;;;;;;;;;;;10.40;99.90;;;;;;5095022;28;19907;-77
2023/12/20 01:04:17;;;;;;;;;;;10.50;99.90;;;;;;5113423;28;19954;-77
2023/12/20 01:06:42;;;;;;;;;;;10.50;99.90;;;;;;5094993;28;19916;-77
2023/12/20 01:09:08;;;;;;;;;;;10.50;99.90;;;;;;5094678;28;20094;-77
2023/12/20 01:11:34;;;;;;;;;;;10.50;99.90;;;;;;5113353;28;20336;-77
2023/12/20 01:14:00;;;;;;;;;;;10.50;99.90;;;;;;5113079;28;19964;-77
2023/12/20 01:16:26;;;;;;;;;;;10.50;99.90;;;;;;5112930;28;20275;-77
2023/12/20 01:18:51;;;;;;;;;;;10.50;99.90;;;;;;5094466;28;19908;-78
2023/12/20 01:21:17;;;;;;;;;;;10.50;99.90;;;;;;5113008;28;19948;-77
2023/12/20 01:23:43;;;;;;;;;;;10.50;99.90;;;;;;5112843;28;19916;-78
2023/12/20 01:26:12;;;;;;;;;;;10.50;99.90;;;;;;5094265;28;20340;-77
2023/12/20 01:28:38;;;;;;;;;;;10.50;99.90;;;;;;5113013;28;19908;-76
2023/12/20 01:31:04;;;;;;;;;;;10.50;99.90;;;;;;5112600;28;19908;-79
2023/12/20 01:33:29;;;;;;;;;;;10.50;99.90;;;;;;5112385;28;19930;-77
2023/12/20 01:35:55;;;;;;;;;;;10.50;99.90;;;;;;5112868;28;19964;-77
2023/12/20 01:38:21;;;;;;;;;;;10.50;99.90;;;;;;5112570;28;20384;-78
2023/12/20 01:40:47;;;;;;;;;;;10.40;99.90;;;;;;5093980;28;19915;-76
2023/12/20 01:43:13;;;;;;;;;;;10.50;99.90;;;;;;5093839;28;19912;-78
2023/12/20 01:45:39;;;;;;;;;;;10.50;99.90;;;;;;5112587;28;20331;-77
2023/12/20 01:48:06;;;;;;;;;;;10.50;99.90;;;;;;5112144;28;19923;-77
2023/12/20 01:50:32;;;;;;;;;;;10.60;99.90;;;;;;5112214;28;19908;-77
2023/12/20 01:52:59;;;;;;;;;;;10.50;99.90;;;;;;5112204;28;20011;-78
2023/12/20 01:55:25;;;;;;;;;;;10.50;99.90;;;;;;5112167;28;19951;-77
2023/12/20 01:57:51;;;;;;;;;;;10.50;99.90;;;;;;5112232;28;19934;-77
2023/12/20 02:00:18;;;;;;;;;;;10.50;99.90;;;;;;5112160;28;20002;-76
2023/12/20 02:02:44;;;;;;;;;;;10.50;99.90;;;;;;5111337;28;19960;-76
2023/12/20 02:05:10;;;;;;;;;;;10.40;99.90;;;;;;5112188;28;19919;-78
2023/12/20 02:07:36;;;;;;;;;;;10.40;99.90;;;;;;5111932;28;19912;-77
2023/12/20 02:10:04;;;;;;;;;;;10.40;99.90;;;;;;5112265;28;20052;-77
2023/12/20 02:12:30;;;;;;;;;;;10.40;99.90;;;;;;5111921;28;19918;-76
2023/12/20 02:14:56;;;;;;;;;;;10.40;99.90;;;;;;5112074;28;19912;-76
2023/12/20 02:17:22;;;;;;;;;;;10.40;99.90;;;;;;5111581;28;20105;-77
2023/12/20 02:19:47;;;;;;;;;;;10.30;99.90;;;;;;5111865;28;19911;-77
2023/12/20 02:22:13;;;;;;;;;;;10.30;99.90;;;;;;5111587;28;19915;-76
2023/12/20 02:24:39;;;;;;;;;;;10.30;99.90;;;;;;5111864;28;20245;-77
2023/12/20 02:27:06;;;;;;;;;;;10.30;99.90;;;;;;5111613;28;19959;-77
2023/12/20 02:29:32;;;;;;;;;;;10.30;99.90;;;;;;5093397;28;20441;-77
2023/12/20 02:31:58;;;;;;;;;;;10.30;99.90;;;;;;5111402;28;20121;-74
2023/12/20 02:34:24;;;;;;;;;;;10.20;99.90;;;;;;5111456;28;19986;-75
2023/12/20 02:36:50;;;;;;;;;;;10.20;99.90;;;;;;5111481;28;19908;-77
2023/12/20 02:39:16;;;;;;;;;;;10.20;99.90;;;;;;5111362;28;19912;-75
2023/12/20 02:41:41;;;;;;;;;;;10.20;99.90;;;;;;5111575;28;19907;-77
2023/12/20 02:44:07;;;;;;;;;;;10.20;99.90;;;;;;5111216;28;19955;-76
2023/12/20 02:46:33;;;;;;;;;;;10.20;99.90;;;;;;5111424;28;19961;-76
2023/12/20 02:48:59;;;;;;;;;;;10.20;99.90;;;;;;5111613;28;20327;-75
2023/12/20 02:51:24;;;;;;;;;;;10.20;99.90;;;;;;5111268;28;19919;-76
2023/12/20 02:53:51;;;;;;;;;;;10.20;99.90;;;;;;5111218;28;19908;-77
2023/12/20 02:56:17;;;;;;;;;;;10.20;99.90;;;;;;5092786;28;19944;-77
2023/12/20 02:58:43;;;;;;;;;;;10.10;99.90;;;;;;5110996;28;19998;-78
2023/12/20 03:01:09;;;;;;;;;;;10.20;99.90;;;;;;5111349;28;19996;-78
2023/12/20 03:03:34;;;;;;;;;;;10.10;99.90;;;;;;5092596;28;19916;-74
2023/12/20 03:06:00;;;;;;;;;;;10.10;99.90;;;;;;5111415;28;19915;-76
2023/12/20 03:08:26;;;;;;;;;;;10.10;99.90;;;;;;5111072;28;19965;-76
2023/12/20 03:10:53;;;;;;;;;;;10.10;99.90;;;;;;5111104;28;19907;-76
2023/12/20 03:13:19;;;;;;;;;;;10.00;99.90;;;;;;5111085;28;19912;-76
2023/12/20 03:15:45;;;;;;;;;;;10.00;99.90;;;;;;5114687;28;20202;-75
2023/12/20 03:18:11;;;;;;;;;;;10.00;99.90;;;;;;5115040;28;19907;-76
2023/12/20 03:20:37;;;;;;;;;;;10.00;99.90;;;;;;5114715;28;19984;-76
2023/12/20 03:23:03;;;;;;;;;;;10.00;99.90;;;;;;5114174;28;20416;-76
2023/12/20 03:25:29;;;;;;;;;;;10.10;99.90;;;;;;5113801;28;20378;-76
2023/12/20 03:27:55;;;;;;;;;;;10.10;99.90;;;;;;5114187;28;19908;-76
2023/12/20 03:30:21;;;;;;;;;;;10.10;99.90;;;;;;5114732;28;19908;-77
2023/12/20 03:32:47;;;;;;;;;;;10.00;99.90;;;;;;5114414;28;20380;-76
2023/12/20 03:35:13;;;;;;;;;;;10.10;99.90;;;;;;5114602;28;19972;-76
2023/12/20 03:37:39;;;;;;;;;;;10.10;99.90;;;;;;5114860;28;20002;-76
2023/12/20 03:40:05;;;;;;;;;;;10.10;99.90;;;;;;5114918;28;19968;-75
2023/12/20 03:42:30;;;;;;;;;;;10.00;99.90;;;;;;5096342;28;19975;-77
2023/12/20 03:44:56;;;;;;;;;;;10.10;99.90;;;;;;5096109;28;19916;-77
2023/12/20 03:47:22;;;;;;;;;;;10.00;99.90;;;;;;5114751;28;19915;-77
2023/12/20 03:49:48;;;;;;;;;;;10.00;99.90;;;;;;5114712;28;20309;-76
2023/12/20 03:52:14;;;;;;;;;;;10.10;99.90;;;;;;5096421;28;19945;-76
2023/12/20 03:54:42;;;;;;;;;;;10.10;99.90;;;;;;5096274;28;19952;-76
2023/12/20 03:57:08;;;;;;;;;;;10.10;99.90;;;;;;5115036;28;20321;-76
2023/12/20 03:59:37;;;;;;;;;;;10.10;99.90;;;;;;5115100;28;20263;-76
2023/12/20 04:02:03;;;;;;;;;;;10.10;99.90;;;;;;5115156;28;20011;-76
2023/12/20 04:04:29;;;;;;;;;;;10.10;99.90;;;;;;5114890;28;19916;-76
2023/12/20 04:06:55;;;;;;;;;;;10.00;99.90;;;;;;5115142;28;19907;-77
2023/12/20 04:09:21;;;;;;;;;;;10.00;99.90;;;;;;5115412;28;20002;-77
2023/12/20 04:11:47;;;;;;;;;;;10.00;99.90;;;;;;5114472;28;19998;-77
2023/12/20 04:14:12;;;;;;;;;;;10.10;99.90;;;;;;5114317;28;20052;-77
2023/12/20 04:16:39;;;;;;;;;;;10.00;99.90;;;;;;5114473;28;19919;-77
2023/12/20 04:19:04;;;;;;;;;;;10.00;99.90;;;;;;5095644;28;20344;-75
2023/12/20 04:21:30;;;;;;;;;;;10.10;99.90;;;;;;5113693;28;19951;-77
2023/12/20 04:23:56;;;;;;;;;;;10.10;99.90;;;;;;5114773;28;20252;-77
2023/12/20 04:26:22;;;;;;;;;;;10.10;99.90;;;;;;5115308;28;20348;-77
2023/12/20 04:28:48;;;;;;;;;;;10.10;99.90;;;;;;5115506;28;20421;-77
2023/12/20 04:31:13;;;;;;;;;;;10.10;99.90;;;;;;5097364;28;20015;-76
2023/12/20 04:33:39;;;;;;;;;;;10.10;99.90;;;;;;5115259;28;20329;-77
2023/12/20 04:36:05;;;;;;;;;;;10.10;99.90;;;;;;5115695;28;19915;-77
2023/12/20 04:38:31;;;;;;;;;;;10.10;99.90;;;;;;5115071;28;19908;-77
2023/12/20 04:40:57;;;;;;;;;;;10.00;99.90;;;;;;5115664;28;19908;-77
2023/12/20 04:43:23;;;;;;;;;;;10.00;99.90;;;;;;5115126;28;19939;-77
2023/12/20 04:45:48;;;;;;;;;;;10.00;99.90;;;;;;5115609;28;19915;-75
2023/12/20 04:48:14;;;;;;;;;;;10.00;99.90;;;;;;5115061;28;20317;-77
2023/12/20 04:50:40;;;;;;;;;;;10.10;99.90;;;;;;5115294;28;19999;-72
2023/12/20 04:53:06;;;;;;;;;;;10.10;99.90;;;;;;5115795;28;19912;-76
2023/12/20 04:55:31;;;;;;;;;;;10.00;99.90;;;;;;5115415;28;19911;-73
2023/12/20 04:57:57;;;;;;;;;;;10.00;99.90;;;;;;5115014;28;19915;-74
2023/12/20 05:00:23;;;;;;;;;;;10.00;99.90;;;;;;5093331;28;19924;-74
2023/12/20 05:02:49;;;;;;;;;;;10.00;99.90;;;;;;5111578;28;19912;-70
2023/12/20 05:05:17;;;;;;;;;;;10.00;99.90;;;;;;5111327;28;20380;-76
2023/12/20 05:07:43;;;;;;;;;;;10.00;99.90;;;;;;5089431;28;19908;-76
2023/12/20 05:10:09;;;;;;;;;;;10.00;99.90;;;;;;5097143;28;19908;-76
2023/12/20 05:12:35;;;;;;;;;;;10.00;99.90;;;;;;5096930;28;19908;-75
2023/12/20 05:15:01;;;;;;;;;;;10.00;99.90;;;;;;5116082;28;20433;-76
2023/12/20 05:17:27;;;;;;;;;;;10.00;99.90;;;;;;5115699;28;20060;-76
2023/12/20 05:19:52;;;;;;;;;;;10.00;99.90;;;;;;5115954;28;19951;-76
2023/12/20 05:22:21;;;;;;;;;;;9.90;99.90;;;;;;5115770;28;19914;-76
2023/12/20 05:24:47;;;;;;;;;;;9.90;99.90;;;;;;5115448;28;19927;-76
2023/12/20 05:27:14;;;;;;;;;;;9.90;99.90;;;;;;5106124;28;19911;-76
2023/12/20 05:29:40;;;;;;;;;;;10.00;99.90;;;;;;5114720;28;19908;-76
2023/12/20 05:32:06;;;;;;;;;;;10.00;99.90;;;;;;5113763;28;19972;-77
2023/12/20 05:34:31;;;;;;;;;;;10.00;99.90;;;;;;5113995;28;19934;-77
2023/12/20 05:36:57;;;;;;;;;;;10.00;99.90;;;;;;5113957;28;19911;-75
2023/12/20 05:39:23;;;;;;;;;;;10.00;99.90;;;;;;5111425;28;19976;-76
2023/12/20 05:41:49;;;;;;;;;;;10.00;99.90;;;;;;5113482;28;19916;-77
2023/12/20 05:44:15;;;;;;;;;;;10.00;99.90;;;;;;5107573;28;20256;-77
2023/12/20 05:46:40;;;;;;;;;;;10.10;99.90;;;;;;5115462;28;19936;-78
2023/12/20 05:49:07;;;;;;;;;;;10.20;99.90;;;;;;5114770;28;20313;-78
2023/12/20 05:51:32;;;;;;;;;;;10.30;99.90;;;;;;5111330;28;20420;-78
2023/12/20 05:53:58;;;;;;;;;;;10.20;99.90;;;;;;5115457;28;19912;-79
2023/12/20 05:56:24;;;;;;;;;;;10.20;99.90;;;;;;5115044;28;19915;-79
2023/12/20 05:58:50;;;;;;;;;;;10.20;99.90;;;;;;5115045;28;20245;-79
2023/12/20 06:01:19;;;;;;;;;;;10.10;99.90;;;;;;5115039;28;19920;-78
2023/12/20 06:03:47;;;;;;;;;;;10.10;99.90;;;;;;5114488;28;20003;-78
2023/12/20 06:06:13;;;;;;;;;;;10.00;99.90;;;;;;5114685;28;19908;-78
2023/12/20 06:08:40;;;;;;;;;;;10.00;99.90;;;;;;5096304;28;20360;-78
2023/12/20 06:11:06;;;;;;;;;;;10.00;99.90;;;;;;5115058;28;19916;-77
2023/12/20 06:13:32;;;;;;;;;;;10.10;99.90;;;;;;5096283;28;19908;-78
2023/12/20 06:15:58;;;;;;;;;;;10.00;99.90;;;;;;5114465;28;19988;-77
2023/12/20 06:18:24;;;;;;;;;;;10.00;99.90;;;;;;5114014;28;20007;-78
2023/12/20 06:20:50;;;;;;;;;;;10.00;99.90;;;;;;5113942;28;20010;-77
2023/12/20 06:23:16;;;;;;;;;;;10.00;99.90;;;;;;5113956;28;20347;-78
2023/12/20 06:25:42;;;;;;;;;;;9.90;99.90;;;;;;5113944;28;19958;-77
2023/12/20 06:28:10;;;;;;;;;;;10.00;99.90;;;;;;5095026;28;19912;-78
2023/12/20 06:30:36;;;;;;;;;;;10.00;99.90;;;;;;5093545;28;20446;-78
2023/12/20 06:33:01;;;;;;;;;;;10.10;99.90;;;;;;5111390;28;19998;-77
2023/12/20 06:35:28;;;;;;;;;;;10.30;99.90;;;;;;5113106;28;20006;-78
2023/12/20 06:37:54;;;;;;;;;;;10.30;99.90;;;;;;5094752;28;19908;-78
2023/12/20 06:40:19;;;;;;;;;;;10.40;99.90;;;;;;5094583;28;20011;-76
2023/12/20 06:42:46;;;;;;;;;;;10.40;99.90;;;;;;5112726;28;19908;-79
2023/12/20 06:45:12;;;;;;;;;;;10.50;99.90;;;;;;5114061;28;20022;-78
2023/12/20 06:47:38;;;;;;;;;;;10.60;99.90;;;;;;5094885;28;19989;-78
2023/12/20 06:50:04;;;;;;;;;;;10.70;99.90;;;;;;5112269;28;20015;-78
2023/12/20 06:52:30;;;;;;;;;;;11.00;99.90;;;;;;5111824;28;19965;-78
2023/12/20 06:54:56;;;;;;;;;;;11.30;99.90;;;;;;5112361;28;19912;-78
2023/12/20 06:57:22;;;;;;;;;;;11.60;99.90;;;;;;5111515;28;20006;-79
2023/12/20 06:59:47;;;;;;;;;;;12.00;99.90;;;;;;5111297;28;19920;-79
2023/12/20 07:02:13;;;;;;;;;;;12.40;99.90;;;;;;5111073;28;19907;-79
2023/12/20 07:04:40;;;;;;;;;;;12.50;99.90;;;;;;5091499;28;19959;-79
2023/12/20 07:07:07;;;;;;;;;;;12.60;99.90;;;;;;5073161;28;19940;-77
2023/12/20 07:09:33;;;;;;;;;;;13.10;99.90;;;;;;5091847;28;19909;-77
2023/12/20 07:11:58;;;;;;;;;;;13.30;99.90;;;;;;5091033;28;19915;-77
2023/12/20 07:14:24;;;;;;;;;;;13.50;99.90;;;;;;5092932;28;20329;-79
2023/12/20 07:16:50;;;;;;;;;;;13.70;99.90;;;;;;5091497;28;20031;-77
2023/12/20 07:19:16;;;;;;;;;;;14.30;99.90;;;;;;5073722;28;19943;-77
2023/12/20 07:21:42;;;;;;;;;;;14.60;99.90;;;;;;5091777;28;19908;-77
2023/12/20 07:24:08;;;;;;;;;;;14.90;99.90;;;;;;5091720;28;19920;-78
2023/12/20 07:26:34;;;;;;;;;;;15.10;99.90;;;;;;5091710;28;19908;-77
2023/12/20 07:29:00;;;;;;;;;;;15.50;99.90;;;;;;5091419;28;19945;-77
2023/12/20 07:31:26;;;;;;;;;;;15.70;99.90;;;;;;5073304;28;19935;-75
2023/12/20 07:33:53;;;;;;;;;;;16.10;99.90;;;;;;5073550;28;19937;-77
2023/12/20 07:36:19;;;;;;;;;;;16.40;99.90;;;;;;5081662;28;19908;-74
2023/12/20 07:38:45;;;;;;;;;;;16.80;99.90;;;;;;5112656;28;19908;-79
2023/12/20 07:41:12;;;;;;;;;;;17.10;99.90;;;;;;5094447;28;19963;-78
2023/12/20 07:43:38;;;;;;;;;;;17.30;99.90;;;;;;5112517;28;19919;-78
2023/12/20 07:46:07;;;;;;;;;;;17.00;99.90;;;;;;5093944;28;20318;-77
2023/12/20 07:48:36;;;;;;;;;;;16.80;99.90;;;;;;5112242;28;19969;-79
2023/12/20 07:51:03;;;;;;;;;;;16.70;99.90;;;;;;5106805;28;19908;-76
2023/12/20 07:53:29;;;;;;;;;;;16.50;99.90;;;;;;5093174;28;19943;-78
2023/12/20 07:55:55;;;;;;;;;;;16.20;99.90;;;;;;5091769;28;19959;-76
2023/12/20 07:58:20;;;;;;;;;;;15.60;99.90;;;;;;5091969;28;19927;-79
2023/12/20 08:00:46;;;;;;;;;;;15.50;99.90;;;;;;5111789;28;19924;-78
2023/12/20 08:03:12;;;;;;;;;;;15.60;99.90;;;;;;5115572;28;19994;-75
2023/12/20 08:05:40;;;;;;;;;;;15.40;99.90;;;;;;5097361;28;19916;-76
2023/12/20 08:08:06;;;;;;;;;;;15.40;99.90;;;;;;5115596;28;19908;-76
2023/12/20 08:10:32;;;;;;;;;;;15.30;99.90;;;;;;5115909;28;19962;-76
2023/12/20 08:12:58;;;;;;;;;;;15.00;99.90;;;;;;5115922;28;19908;-77
2023/12/20 08:15:24;;;;;;;;;;;14.90;99.90;;;;;;5115646;28;19914;-76
2023/12/20 08:17:53;;;;;;;;;;;14.60;99.90;;;;;;5115573;28;19908;-75
2023/12/20 08:20:18;;;;;;;;;;;14.60;99.90;;;;;;5115810;28;19915;-74
2023/12/20 08:22:45;;;;;;;;;;;14.40;99.90;;;;;;5115555;28;19908;-75
2023/12/20 08:25:11;;;;;;;;;;;14.50;99.90;;;;;;5115482;28;19915;-78
2023/12/20 08:27:39;;;;;;;;;;;14.60;99.90;;;;;;5096994;28;19918;-76
2023/12/20 08:30:06;;;;;;;;;;;14.70;99.90;;;;;;5114856;28;19957;-72
2023/12/20 08:32:32;;;;;;;;;;;14.90;99.90;;;;;;5112363;28;19956;-76
2023/12/20 08:34:58;;;;;;;;;;;15.00;99.90;;;;;;5094974;28;20264;-76
2023/12/20 08:37:24;;;;;;;;;;;15.10;99.90;;;;;;5095409;28;20002;-76
2023/12/20 08:39:50;;;;;;;;;;;15.30;99.90;;;;;;5093375;28;19943;-75
2023/12/20 08:42:15;;;;;;;;;;;15.40;99.90;;;;;;5094539;28;19961;-77
2023/12/20 08:44:41;;;;;;;;;;;15.50;99.90;;;;;;5076023;28;19924;-77
2023/12/20 08:47:07;;;;;;;;;;;15.30;99.90;;;;;;5094076;28;19980;-75
2023/12/20 08:49:33;;;;;;;;;;;15.40;99.90;;;;;;5092654;28;19908;-77
2023/12/20 08:51:58;;;;;;;;;;;15.40;99.90;;;;;;5107934;28;19908;-75
2023/12/20 08:54:24;;;;;;;;;;;15.60;99.90;;;;;;5114647;28;19908;-78
2023/12/20 08:56:53;;;;;;;;;;;15.70;99.90;;;;;;5114338;28;19915;-74
2023/12/20 08:59:19;;;;;;;;;;;15.10;99.90;;;;;;5095992;28;19939;-73
2023/12/20 09:01:44;;;;;;;;;;;15.10;99.90;;;;;;5114329;28;19907;-78
2023/12/20 09:04:10;;;;;;;;;;;15.20;99.90;;;;;;5114419;28;19915;-77
2023/12/20 09:06:36;;;;;;;;;;;15.40;99.90;;;;;;5114958;28;19914;-79
2023/12/20 09:09:02;;;;;;;;;;;15.50;99.90;;;;;;5095989;28;20268;-78
2023/12/20 09:11:28;;;;;;;;;;;15.60;99.90;;;;;;5113558;28;19908;-74
2023/12/20 09:13:54;;;;;;;;;;;15.60;99.90;;;;;;5114294;28;19953;-72
2023/12/20 09:19:40;;;;;;;;;;;15.20;99.90;;;;;;5088725;28;19938;-73
2023/12/20 09:22:51;;;;;;;;;;;15.00;99.90;;;;;;5114251;28;19908;-71
2023/12/20 09:25:17;;;;;;;;;;;14.90;99.90;;;;;;5098661;28;20412;-77
2023/12/20 09:28:54;;;;;;;;;;;;;;;;;;;;;
2023/12/20 09:31:53;;;;;;;;;;;14.70;99.90;;;;;;5011307;28;19914;-72
2023/12/20 09:40:29;;;;;;;;;;;15.60;99.90;;;;;;4972375;28;19910;-71
2023/12/20 09:43:00;;;;;;;;;;;15.40;99.90;;;;;;4972114;28;19910;-72
2023/12/20 09:45:27;;;;;;;;;;;15.20;99.90;;;;;;4972167;28;19918;-75
2023/12/20 09:47:54;;;;;;;;;;;15.30;99.90;;;;;;4971826;28;19911;-73
2023/12/20 09:50:21;;;;;;;;;;;15.40;99.90;;;;;;4972225;28;20017;-75
2023/12/20 09:52:50;;;;;;;;;;;15.40;99.90;;;;;;4971868;28;20318;-76
2023/12/20 09:55:17;;;;;;;;;;;15.50;99.90;;;;;;4972145;28;19910;-77
2023/12/20 09:57:43;;;;;;;;;;;15.50;99.90;;;;;;4972153;28;19917;-75
2023/12/20 10:00:09;;;;;;;;;;;15.50;99.90;;;;;;4984455;28;19977;-76
2023/12/20 10:02:38;;;;;;;;;;;15.30;99.90;;;;;;5009211;28;19909;-75
2023/12/20 10:05:08;;;;;;;;;;;15.20;99.90;;;;;;5010786;28;20282;-76
2023/12/20 10:07:35;;;;;;;;;;;15.20;99.90;;;;;;5011371;28;20305;-77
2023/12/20 10:10:02;;;;;;;;;;;15.50;99.90;;;;;;5011850;28;20038;-76
2023/12/20 10:12:28;;;;;;;;;;;15.80;99.90;;;;;;5011045;28;19990;-76
2023/12/20 10:14:53;;;;;;;;;;;16.00;99.90;;;;;;5009989;28;19952;-76
2023/12/20 10:17:21;;;;;;;;;;;16.10;99.90;;;;;;5054535;28;19999;-76
2023/12/20 10:19:47;;;;;;;;;;;16.20;99.90;;;;;;5074404;28;20401;-76
2023/12/20 10:22:13;;;;;;;;;;;16.40;99.90;;;;;;5071038;28;19974;-81
2023/12/20 10:24:40;;;;;;;;;;;16.50;99.90;;;;;;5103017;28;19916;-79
2023/12/20 10:27:06;;;;;;;;;;;16.40;99.90;;;;;;5073435;28;19915;-75
2023/12/20 10:29:35;;;;;;;;;;;16.30;99.90;;;;;;5092247;28;19908;-75
2023/12/20 10:32:20;;;;;;;;;;;16.10;99.90;;;;;;5092605;28;19918;-72
2023/12/20 10:34:45;;;;;;;;;;;16.10;99.90;;;;;;5072637;28;20019;-74
2023/12/20 10:37:11;;;;;;;;;;;16.30;99.90;;;;;;5072573;28;20284;-77
2023/12/20 10:39:39;;;;;;;;;;;16.50;99.90;;;;;;5090656;28;19916;-73
2023/12/20 10:42:05;;;;;;;;;;;16.70;99.90;;;;;;5092283;28;20006;-73
2023/12/20 10:44:32;;;;;;;;;;;16.60;99.90;;;;;;5092073;28;19920;-76
2023/12/20 10:46:58;;;;;;;;;;;16.60;99.90;;;;;;5074583;28;19927;-76
2023/12/20 10:49:25;;;;;;;;;;;16.80;99.90;;;;;;5092279;28;19908;-70
2023/12/20 10:51:53;;;;;;;;;;;16.90;99.90;;;;;;5092308;28;19916;-77
2023/12/20 10:54:19;;;;;;;;;;;17.10;99.90;;;;;;5092689;28;19931;-75
2023/12/20 10:56:45;;;;;;;;;;;17.20;99.90;;;;;;5091946;28;20256;-75
2023/12/20 10:59:11;;;;;;;;;;;17.20;99.90;;;;;;5090822;28;19966;-74
2023/12/20 11:01:38;;;;;;;;;;;17.10;99.90;;;;;;5087370;28;19919;-77
2023/12/20 11:04:06;;;;;;;;;;;17.30;99.90;;;;;;5110248;28;19920;-71
2023/12/20 11:06:35;;;;;;;;;;;17.30;99.90;;;;;;5111983;28;19915;-74
2023/12/20 11:09:12;;;;;;;;;;;17.40;99.90;;;;;;5079713;28;19965;-75
2023/12/20 11:11:38;;;;;;;;;;;17.50;99.90;;;;;;5111508;28;20040;-74
2023/12/20 11:14:06;;;;;;;;;;;17.60;99.90;;;;;;5093126;28;19966;-75
2023/12/20 11:16:32;;;;;;;;;;;17.70;99.90;;;;;;5112878;28;19908;-75
2023/12/20 11:19:04;;;;;;;;;;;17.60;99.90;;;;;;5111877;28;19915;-77
2023/12/20 11:21:30;;;;;;;;;;;17.70;99.90;;;;;;5112052;28;19915;-75
2023/12/20 11:23:56;;;;;;;;;;;17.60;99.90;;;;;;5111787;28;19935;-74
2023/12/20 11:26:29;;;;;;;;;;;17.60;99.90;;;;;;5112078;28;20014;-77
2023/12/20 11:28:54;;;;;;;;;;;17.40;99.90;;;;;;5093675;28;19957;-76
2023/12/20 11:31:20;;;;;;;;;;;17.40;99.90;;;;;;5112347;28;19941;-76
2023/12/20 11:33:48;;;;;;;;;;;17.10;99.90;;;;;;5111797;28;19912;-76
2023/12/20 11:36:15;;;;;;;;;;;17.30;99.90;;;;;;5114907;28;19918;-76
2023/12/20 11:38:57;;;;;;;;;;;17.20;99.90;;;;;;5116472;28;20370;-76
2023/12/20 11:41:24;;;;;;;;;;;17.00;99.90;;;;;;5115714;28;19912;-76
2023/12/20 11:43:52;;;;;;;;;;;17.10;99.90;;;;;;5097809;28;20019;-76
2023/12/20 11:46:18;;;;;;;;;;;16.50;99.90;;;;;;5115755;28;20343;-74
2023/12/20 11:48:44;;;;;;;;;;;15.80;99.90;;;;;;5115091;28;19918;-70
2023/12/20 11:51:11;;;;;;;;;;;15.70;99.90;;;;;;5114943;28;19918;-76
2023/12/20 11:53:37;;;;;;;;;;;15.90;99.90;;;;;;5116099;28;19914;-77
2023/12/20 11:56:03;;;;;;;;;;;16.10;99.90;;;;;;5115654;28;19915;-76
2023/12/20 11:58:29;;;;;;;;;;;16.50;99.90;;;;;;5116061;28;19908;-78
2023/12/20 12:01:04;;;;;;;;;;;16.60;99.90;;;;;;5115007;28;19974;-75
2023/12/20 12:03:30;;;;;;;;;;;16.70;99.90;;;;;;5114345;28;20027;-78
2023/12/20 12:05:56;;;;;;;;;;;16.90;99.90;;;;;;5096295;28;19998;-76
2023/12/20 12:08:22;;;;;;;;;;;17.00;99.90;;;;;;5114225;28;19907;-78
2023/12/20 12:10:48;;;;;;;;;;;17.00;99.90;;;;;;5115296;28;20319;-74
2023/12/20 12:13:14;;;;;;;;;;;17.10;99.90;;;;;;5114988;28;20002;-76
2023/12/20 12:15:42;;;;;;;;;;;17.10;99.90;;;;;;5096502;28;19983;-75
2023/12/20 12:18:08;;;;;;;;;;;17.00;99.90;;;;;;5115743;28;19912;-74
2023/12/20 12:20:34;;;;;;;;;;;17.10;99.90;;;;;;5115976;28;19908;-78
2023/12/20 12:23:02;;;;;;;;;;;17.20;99.90;;;;;;5116548;28;20375;-76
2023/12/20 12:25:29;;;;;;;;;;;17.20;99.90;;;;;;5098065;28;19923;-81
2023/12/20 12:27:55;;;;;;;;;;;17.30;99.90;;;;;;5116191;28;19915;-74
2023/12/20 12:30:21;;;;;;;;;;;16.90;99.90;;;;;;5115604;28;20007;-77
2023/12/20 12:32:47;;;;;;;;;;;16.90;99.90;;;;;;5114969;28;19985;-76
2023/12/20 12:35:14;;;;;;;;;;;17.10;99.90;;;;;;5114700;28;19953;-74
2023/12/20 12:37:40;;;;;;;;;;;17.00;99.90;;;;;;5114639;28;19908;-75
2023/12/20 12:40:26;;;;;;;;;;;16.90;99.90;;;;;;5115086;28;19930;-76
2023/12/20 12:42:51;;;;;;;;;;;16.80;99.90;;;;;;5113837;28;20268;-76
2023/12/20 12:45:17;;;;;;;;;;;16.90;99.90;;;;;;5096836;28;19927;-74
2023/12/20 12:47:43;;;;;;;;;;;17.00;99.90;;;;;;5095338;28;19995;-74
2023/12/20 12:50:09;;;;;;;;;;;16.60;99.90;;;;;;5115500;28;19911;-75
2023/12/20 12:52:35;;;;;;;;;;;16.70;99.90;;;;;;5113569;28;19930;-76
2023/12/20 12:55:01;;;;;;;;;;;16.70;99.90;;;;;;5113046;28;19908;-76
2023/12/20 12:57:27;;;;;;;;;;;16.80;99.90;;;;;;5097298;28;19952;-75
2023/12/20 12:59:54;;;;;;;;;;;16.90;99.90;;;;;;5114343;28;19920;-76
2023/12/20 13:02:19;;;;;;;;;;;16.90;99.90;;;;;;5112984;28;19911;-76
2023/12/20 13:04:46;;;;;;;;;;;17.10;99.90;;;;;;5081297;28;19922;-76
2023/12/20 13:07:13;;;;;;;;;;;17.10;99.90;;;;;;5115226;28;19952;-77
2023/12/20 13:09:40;;;;;;;;;;;17.00;99.90;;;;;;5096592;28;19908;-75
2023/12/20 13:12:06;;;;;;;;;;;17.20;99.90;;;;;;5096602;28;20364;-76
2023/12/20 13:14:33;;;;;;;;;;;16.60;99.90;;;;;;5115692;28;19918;-75
2023/12/20 13:16:59;;;;;;;;;;;16.40;99.90;;;;;;5117786;28;19931;-76
2023/12/20 13:19:24;;;;;;;;;;;16.50;99.90;;;;;;5115758;28;20356;-76
2023/12/20 13:21:50;;;;;;;;;;;16.40;99.90;;;;;;5115165;28;19907;-76
2023/12/20 13:24:16;;;;;;;;;;;16.40;99.90;;;;;;5115089;28;19977;-75
2023/12/20 13:26:42;;;;;;;;;;;16.40;99.90;;;;;;5096797;28;19907;-75
2023/12/20 13:29:07;;;;;;;;;;;16.60;99.90;;;;;;5115144;28;19965;-76
2023/12/20 13:31:36;;;;;;;;;;;16.80;99.90;;;;;;5115060;28;19959;-75
2023/12/20 13:34:02;;;;;;;;;;;16.90;99.90;;;;;;5114983;28;19933;-75
2023/12/20 13:36:28;;;;;;;;;;;16.70;99.90;;;;;;5115047;28;19916;-74
2023/12/20 13:38:54;;;;;;;;;;;16.80;99.90;;;;;;5115033;28;19908;-76
2023/12/20 13:41:20;;;;;;;;;;;16.80;99.90;;;;;;5115215;28;19915;-75
2023/12/20 13:43:46;;;;;;;;;;;16.80;99.90;;;;;;5114431;28;19907;-76
2023/12/20 13:46:11;;;;;;;;;;;16.50;99.90;;;;;;5115257;28;19908;-77
2023/12/20 13:48:37;;;;;;;;;;;16.40;99.90;;;;;;5114292;28;20197;-76
2023/12/20 13:51:03;;;;;;;;;;;16.20;99.90;;;;;;5095646;28;19908;-76
2023/12/20 13:53:29;;;;;;;;;;;16.10;99.90;;;;;;5113904;28;20391;-75
2023/12/20 13:55:55;;;;;;;;;;;16.40;99.90;;;;;;5095188;28;19965;-74
2023/12/20 13:58:21;;;;;;;;;;;16.40;99.90;;;;;;5112924;28;19908;-74
2023/12/20 14:00:47;;;;;;;;;;;16.20;99.90;;;;;;5113346;28;20272;-73
2023/12/20 14:03:12;;;;;;;;;;;16.20;99.90;;;;;;5099281;28;19911;-75
2023/12/20 14:05:38;;;;;;;;;;;16.20;99.90;;;;;;5113813;28;19916;-75
2023/12/20 14:08:04;;;;;;;;;;;16.20;99.90;;;;;;5114529;28;19994;-78
2023/12/20 14:10:30;;;;;;;;;;;16.30;99.90;;;;;;5113831;28;19915;-76
2023/12/20 14:12:56;;;;;;;;;;;16.30;99.90;;;;;;5113806;28;20330;-74
2023/12/20 14:15:25;;;;;;;;;;;16.40;99.90;;;;;;5113387;28;19933;-75
2023/12/20 14:17:50;;;;;;;;;;;16.50;99.90;;;;;;5108889;28;19931;-76
2023/12/20 14:20:17;;;;;;;;;;;16.40;99.90;;;;;;5112982;28;19912;-77
2023/12/20 14:22:43;;;;;;;;;;;16.40;99.90;;;;;;5108739;28;20271;-76
2023/12/20 14:25:13;;;;;;;;;;;16.60;99.90;;;;;;5113100;28;19923;-76